<?xml version="1.0" encoding="UTF-8" standalone="no" ?>
<gpx xmlns="http://www.topografix.com/GPX/1/1" xmlns:xsi="http://www.w3.org/2001/XMLSchema-instance" xsi:schemaLocation="http://www.topografix.com/GPX/1/1 http://www.topografix.com/GPX/1/1/gpx.xsd" version="1.1" creator="VisuGPX - https://www.visugpx.com">
  <metadata>
    <name>2018-12-20-46-arcambal</name>
    <desc><![CDATA[Randonnée de 10km pour 250 m de dénivelé positif. une pente douce et régulière, des sentiers couverts de feuilles, avec au passage quelques fontaines et des gariottes.]]></desc>
  </metadata>
  <trk>
    <name><![CDATA[9393754-Arcambal]]></name>
    <trkseg>
      <trkpt lat="44.45669" lon="1.51583">
        <ele>124</ele>
        <time>2018-12-18T12:10:15Z</time>
      </trkpt>
      <trkpt lat="44.45678" lon="1.51723">
        <ele>123</ele>
        <time>2018-12-18T12:11:15Z</time>
      </trkpt>
      <trkpt lat="44.456" lon="1.51747">
        <ele>120</ele>
        <time>2018-12-18T12:12:15Z</time>
      </trkpt>
      <trkpt lat="44.45504" lon="1.51759">
        <ele>122</ele>
        <time>2018-12-18T12:13:15Z</time>
      </trkpt>
      <trkpt lat="44.45465" lon="1.51814">
        <ele>124</ele>
        <time>2018-12-18T12:14:15Z</time>
      </trkpt>
      <trkpt lat="44.45426" lon="1.51899">
        <ele>128</ele>
        <time>2018-12-18T12:15:15Z</time>
      </trkpt>
      <trkpt lat="44.45357" lon="1.51996">
        <ele>126</ele>
        <time>2018-12-18T12:16:15Z</time>
      </trkpt>
      <trkpt lat="44.45344" lon="1.52129">
        <ele>134</ele>
        <time>2018-12-18T12:17:15Z</time>
      </trkpt>
      <trkpt lat="44.45309" lon="1.52214">
        <ele>136</ele>
        <time>2018-12-18T12:18:15Z</time>
      </trkpt>
      <trkpt lat="44.4527" lon="1.52311">
        <ele>136</ele>
        <time>2018-12-18T12:19:15Z</time>
      </trkpt>
      <trkpt lat="44.45301" lon="1.52396">
        <ele>143</ele>
        <time>2018-12-18T12:20:15Z</time>
      </trkpt>
      <trkpt lat="44.45409" lon="1.52463">
        <ele>150</ele>
        <time>2018-12-18T12:21:15Z</time>
      </trkpt>
      <trkpt lat="44.45517" lon="1.5253">
        <ele>154</ele>
        <time>2018-12-18T12:22:15Z</time>
      </trkpt>
      <trkpt lat="44.45587" lon="1.52633">
        <ele>155</ele>
        <time>2018-12-18T12:23:15Z</time>
      </trkpt>
      <trkpt lat="44.45712" lon="1.52694">
        <ele>168</ele>
        <time>2018-12-18T12:24:15Z</time>
      </trkpt>
      <trkpt lat="44.45721" lon="1.52742">
        <ele>170</ele>
        <time>2018-12-18T12:25:15Z</time>
      </trkpt>
      <trkpt lat="44.45643" lon="1.52736">
        <ele>170</ele>
        <time>2018-12-18T12:26:15Z</time>
      </trkpt>
      <trkpt lat="44.45587" lon="1.52864">
        <ele>182</ele>
        <time>2018-12-18T12:27:15Z</time>
      </trkpt>
      <trkpt lat="44.4553" lon="1.53027">
        <ele>196</ele>
        <time>2018-12-18T12:28:15Z</time>
      </trkpt>
      <trkpt lat="44.45491" lon="1.53106">
        <ele>198</ele>
        <time>2018-12-18T12:29:15Z</time>
      </trkpt>
      <trkpt lat="44.45448" lon="1.53052">
        <ele>197</ele>
        <time>2018-12-18T12:30:15Z</time>
      </trkpt>
      <trkpt lat="44.45379" lon="1.53003">
        <ele>199</ele>
        <time>2018-12-18T12:31:15Z</time>
      </trkpt>
      <trkpt lat="44.45309" lon="1.52955">
        <ele>205</ele>
        <time>2018-12-18T12:32:15Z</time>
      </trkpt>
      <trkpt lat="44.45257" lon="1.52949">
        <ele>215</ele>
        <time>2018-12-18T12:33:15Z</time>
      </trkpt>
      <trkpt lat="44.45184" lon="1.53009">
        <ele>225</ele>
        <time>2018-12-18T12:34:15Z</time>
      </trkpt>
      <trkpt lat="44.45119" lon="1.53155">
        <ele>225</ele>
        <time>2018-12-18T12:35:15Z</time>
      </trkpt>
      <trkpt lat="44.45093" lon="1.53319">
        <ele>230</ele>
        <time>2018-12-18T12:36:15Z</time>
      </trkpt>
      <trkpt lat="44.45119" lon="1.53483">
        <ele>224</ele>
        <time>2018-12-18T12:37:15Z</time>
      </trkpt>
      <trkpt lat="44.45214" lon="1.53604">
        <ele>221</ele>
        <time>2018-12-18T12:38:15Z</time>
      </trkpt>
      <trkpt lat="44.45288" lon="1.53713">
        <ele>216</ele>
        <time>2018-12-18T12:39:15Z</time>
      </trkpt>
      <trkpt lat="44.45327" lon="1.53792">
        <ele>220</ele>
        <time>2018-12-18T12:40:15Z</time>
      </trkpt>
      <trkpt lat="44.45387" lon="1.53671">
        <ele>223</ele>
        <time>2018-12-18T12:41:15Z</time>
      </trkpt>
      <trkpt lat="44.45405" lon="1.53762">
        <ele>225</ele>
        <time>2018-12-18T12:42:15Z</time>
      </trkpt>
      <trkpt lat="44.45426" lon="1.53877">
        <ele>228</ele>
        <time>2018-12-18T12:43:15Z</time>
      </trkpt>
      <trkpt lat="44.45461" lon="1.54053">
        <ele>237</ele>
        <time>2018-12-18T12:44:15Z</time>
      </trkpt>
      <trkpt lat="44.45496" lon="1.54199">
        <ele>252</ele>
        <time>2018-12-18T12:45:15Z</time>
      </trkpt>
      <trkpt lat="44.45448" lon="1.54393">
        <ele>270</ele>
        <time>2018-12-18T12:46:15Z</time>
      </trkpt>
      <trkpt lat="44.45439" lon="1.54539">
        <ele>284</ele>
        <time>2018-12-18T12:47:15Z</time>
      </trkpt>
      <trkpt lat="44.45448" lon="1.54666">
        <ele>290</ele>
        <time>2018-12-18T12:48:15Z</time>
      </trkpt>
      <trkpt lat="44.45509" lon="1.54806">
        <ele>289</ele>
        <time>2018-12-18T12:49:15Z</time>
      </trkpt>
      <trkpt lat="44.45604" lon="1.54642">
        <ele>287</ele>
        <time>2018-12-18T12:50:15Z</time>
      </trkpt>
      <trkpt lat="44.45734" lon="1.54508">
        <ele>288</ele>
        <time>2018-12-18T12:51:15Z</time>
      </trkpt>
      <trkpt lat="44.45834" lon="1.54423">
        <ele>286</ele>
        <time>2018-12-18T12:52:15Z</time>
      </trkpt>
      <trkpt lat="44.45968" lon="1.54423">
        <ele>287</ele>
        <time>2018-12-18T12:53:15Z</time>
      </trkpt>
      <trkpt lat="44.46093" lon="1.5432">
        <ele>292</ele>
        <time>2018-12-18T12:54:15Z</time>
      </trkpt>
      <trkpt lat="44.46275" lon="1.54168">
        <ele>268</ele>
        <time>2018-12-18T12:55:15Z</time>
      </trkpt>
      <trkpt lat="44.46275" lon="1.5409">
        <ele>263</ele>
        <time>2018-12-18T12:56:15Z</time>
      </trkpt>
      <trkpt lat="44.46241" lon="1.53926">
        <ele>253</ele>
        <time>2018-12-18T12:57:15Z</time>
      </trkpt>
      <trkpt lat="44.46241" lon="1.5378">
        <ele>235</ele>
        <time>2018-12-18T12:58:15Z</time>
      </trkpt>
      <trkpt lat="44.46297" lon="1.53628">
        <ele>223</ele>
        <time>2018-12-18T12:59:15Z</time>
      </trkpt>
      <trkpt lat="44.46388" lon="1.5344">
        <ele>194</ele>
        <time>2018-12-18T13:00:15Z</time>
      </trkpt>
      <trkpt lat="44.46479" lon="1.53313">
        <ele>173</ele>
        <time>2018-12-18T13:01:15Z</time>
      </trkpt>
      <trkpt lat="44.46587" lon="1.53398">
        <ele>159</ele>
        <time>2018-12-18T13:02:15Z</time>
      </trkpt>
      <trkpt lat="44.46665" lon="1.53507">
        <ele>152</ele>
        <time>2018-12-18T13:03:15Z</time>
      </trkpt>
      <trkpt lat="44.46722" lon="1.53343">
        <ele>139</ele>
        <time>2018-12-18T13:04:15Z</time>
      </trkpt>
      <trkpt lat="44.46709" lon="1.5327">
        <ele>140</ele>
        <time>2018-12-18T13:05:15Z</time>
      </trkpt>
      <trkpt lat="44.46691" lon="1.53167">
        <ele>136</ele>
        <time>2018-12-18T13:06:15Z</time>
      </trkpt>
      <trkpt lat="44.46652" lon="1.531">
        <ele>135</ele>
        <time>2018-12-18T13:07:15Z</time>
      </trkpt>
      <trkpt lat="44.46635" lon="1.53112">
        <ele>138</ele>
        <time>2018-12-18T13:08:15Z</time>
      </trkpt>
      <trkpt lat="44.46574" lon="1.53112">
        <ele>146</ele>
        <time>2018-12-18T13:09:15Z</time>
      </trkpt>
      <trkpt lat="44.46509" lon="1.53137">
        <ele>154</ele>
        <time>2018-12-18T13:10:15Z</time>
      </trkpt>
      <trkpt lat="44.46449" lon="1.53161">
        <ele>163</ele>
        <time>2018-12-18T13:11:15Z</time>
      </trkpt>
      <trkpt lat="44.46297" lon="1.53367">
        <ele>179</ele>
        <time>2018-12-18T13:12:15Z</time>
      </trkpt>
      <trkpt lat="44.46141" lon="1.53531">
        <ele>196</ele>
        <time>2018-12-18T13:13:15Z</time>
      </trkpt>
      <trkpt lat="44.46037" lon="1.53477">
        <ele>205</ele>
        <time>2018-12-18T13:14:15Z</time>
      </trkpt>
      <trkpt lat="44.46042" lon="1.53355">
        <ele>204</ele>
        <time>2018-12-18T13:15:15Z</time>
      </trkpt>
      <trkpt lat="44.46059" lon="1.53222">
        <ele>205</ele>
        <time>2018-12-18T13:16:15Z</time>
      </trkpt>
      <trkpt lat="44.46033" lon="1.52985">
        <ele>206</ele>
        <time>2018-12-18T13:17:15Z</time>
      </trkpt>
      <trkpt lat="44.45981" lon="1.529">
        <ele>202</ele>
        <time>2018-12-18T13:18:15Z</time>
      </trkpt>
      <trkpt lat="44.45907" lon="1.52785">
        <ele>193</ele>
        <time>2018-12-18T13:19:15Z</time>
      </trkpt>
      <trkpt lat="44.45881" lon="1.52742">
        <ele>186</ele>
        <time>2018-12-18T13:20:15Z</time>
      </trkpt>
      <trkpt lat="44.45838" lon="1.5256">
        <ele>170</ele>
        <time>2018-12-18T13:21:15Z</time>
      </trkpt>
      <trkpt lat="44.45834" lon="1.52323">
        <ele>160</ele>
        <time>2018-12-18T13:22:15Z</time>
      </trkpt>
      <trkpt lat="44.45838" lon="1.52172">
        <ele>154</ele>
        <time>2018-12-18T13:23:15Z</time>
      </trkpt>
      <trkpt lat="44.45985" lon="1.52081">
        <ele>150</ele>
        <time>2018-12-18T13:24:15Z</time>
      </trkpt>
      <trkpt lat="44.4608" lon="1.52014">
        <ele>128</ele>
        <time>2018-12-18T13:25:15Z</time>
      </trkpt>
      <trkpt lat="44.46063" lon="1.51893">
        <ele>125</ele>
        <time>2018-12-18T13:26:15Z</time>
      </trkpt>
      <trkpt lat="44.45968" lon="1.5171">
        <ele>127</ele>
        <time>2018-12-18T13:27:15Z</time>
      </trkpt>
      <trkpt lat="44.4592" lon="1.51717">
        <ele>134</ele>
        <time>2018-12-18T13:28:15Z</time>
      </trkpt>
      <trkpt lat="44.45851" lon="1.51613">
        <ele>131</ele>
        <time>2018-12-18T13:29:15Z</time>
      </trkpt>
      <trkpt lat="44.45678" lon="1.5165">
        <ele>123</ele>
        <time>2018-12-18T13:30:15Z</time>
      </trkpt>
    </trkseg>
  </trk>
</gpx>